Time;durP1;ratioP1;P1;durP2;ratioP2;P2;SDS_P1;SDS_P2;PMS_P1;PMS_P2;Temp;Humidity;BMP_temperature;BMP_pressure;BME280_temperature;BME280_humidity;BME280_pressure;Samples;Min_cycle;Max_cycle;Signal;HPM_P1;HPM_P2
2022/11/02 00:00:56;;;;;;;57.60;36.60;;;8.40;99.90;;;;;;5008858;28;20449;-53
2022/11/02 00:03:22;;;;;;;56.27;37.00;;;8.40;99.90;;;;;;5006788;28;20781;-49
2022/11/02 00:05:48;;;;;;;56.37;36.17;;;8.40;99.90;;;;;;5008981;28;20444;-52
2022/11/02 00:08:13;;;;;;;54.00;35.77;;;8.40;99.90;;;;;;5006311;28;20543;-51
2022/11/02 00:10:39;;;;;;;56.07;37.00;;;8.40;99.90;;;;;;4998717;28;20242;-48
2022/11/02 00:13:04;;;;;;;52.13;34.77;;;8.40;99.90;;;;;;5008307;28;20317;-52
2022/11/02 00:15:33;;;;;;;56.67;37.60;;;8.40;99.90;;;;;;5009746;28;20664;-47
2022/11/02 00:18:03;;;;;;;54.40;36.20;;;8.40;99.90;;;;;;5007790;28;20235;-50
2022/11/02 00:20:29;;;;;;;54.93;35.80;;;8.40;99.90;;;;;;5006737;28;20489;-49
2022/11/02 00:23:00;;;;;;;58.33;36.40;;;8.40;99.90;;;;;;5005102;28;20804;-50
2022/11/02 00:25:27;;;;;;;54.40;34.77;;;8.40;99.90;;;;;;5009553;28;20191;-50
2022/11/02 00:27:52;;;;;;;46.87;35.47;;;8.40;99.90;;;;;;5006848;28;20445;-49
2022/11/02 00:30:18;;;;;;;58.03;36.23;;;8.40;99.90;;;;;;5008273;28;20484;-52
2022/11/02 00:32:44;;;;;;;50.67;36.13;;;8.40;99.90;;;;;;5002503;28;20807;-52
2022/11/02 00:35:10;;;;;;;52.23;34.00;;;8.30;99.90;;;;;;5009052;28;20458;-48
2022/11/02 00:37:36;;;;;;;52.73;33.40;;;8.30;99.90;;;;;;5007793;28;20218;-51
2022/11/02 00:40:01;;;;;;;56.30;35.10;;;8.20;99.90;;;;;;5004592;28;20518;-49
2022/11/02 00:42:27;;;;;;;51.57;35.70;;;8.20;99.90;;;;;;5000522;28;20653;-54
2022/11/02 00:44:53;;;;;;;50.07;33.43;;;8.20;99.90;;;;;;5009111;28;20193;-49
2022/11/02 00:47:19;;;;;;;44.23;34.53;;;8.10;99.90;;;;;;5008009;28;20190;-52
2022/11/02 00:49:44;;;;;;;57.03;35.20;;;8.10;99.90;;;;;;5007720;28;21699;-53
2022/11/02 00:52:10;;;;;;;55.73;34.50;;;8.10;99.90;;;;;;5003213;28;20444;-50
2022/11/02 00:54:35;;;;;;;51.10;35.13;;;8.00;99.90;;;;;;5003955;28;20294;-53
2022/11/02 00:57:01;;;;;;;52.60;34.20;;;8.10;99.90;;;;;;5008447;28;20186;-48
2022/11/02 00:59:27;;;;;;;55.57;35.10;;;8.00;99.90;;;;;;4999105;28;20725;-50
2022/11/02 01:01:52;;;;;;;54.97;36.17;;;8.10;99.90;;;;;;5001324;28;20432;-49
2022/11/02 01:04:18;;;;;;;52.70;33.87;;;8.10;99.90;;;;;;4992838;28;20329;-48
2022/11/02 01:06:44;;;;;;;51.80;35.37;;;8.00;99.90;;;;;;4998586;28;20698;-47
2022/11/02 01:09:12;;;;;;;53.10;34.20;;;8.00;99.90;;;;;;5011903;28;20625;-50
2022/11/02 01:11:39;;;;;;;54.30;35.97;;;8.00;99.90;;;;;;5008455;28;20774;-49
2022/11/02 01:14:04;;;;;;;51.63;35.63;;;8.00;99.90;;;;;;5012666;28;20442;-48
2022/11/02 01:16:31;;;;;;;54.57;36.90;;;8.00;99.90;;;;;;4998526;28;20540;-54
2022/11/02 01:18:57;;;;;;;58.00;34.77;;;7.90;99.90;;;;;;5019313;28;20192;-48
2022/11/02 01:21:23;;;;;;;60.67;36.50;;;8.00;99.90;;;;;;5009743;28;20549;-48
2022/11/02 01:23:49;;;;;;;57.97;36.47;;;8.00;99.90;;;;;;5001172;28;20461;-50
2022/11/02 01:26:15;;;;;;;59.53;35.70;;;8.00;99.90;;;;;;4993796;28;20548;-52
2022/11/02 01:28:41;;;;;;;55.13;36.20;;;8.00;99.90;;;;;;5000358;28;20199;-50
2022/11/02 01:31:07;;;;;;;53.50;35.43;;;8.00;99.90;;;;;;4992909;28;20214;-48
2022/11/02 01:33:34;;;;;;;52.10;36.00;;;8.00;99.90;;;;;;5000415;28;20441;-49
2022/11/02 01:36:02;;;;;;;59.23;37.10;;;8.00;99.90;;;;;;5000454;28;20467;-49
2022/11/02 01:38:30;;;;;;;62.20;36.50;;;7.90;99.90;;;;;;5010291;28;20492;-48
2022/11/02 01:40:55;;;;;;;60.20;37.00;;;7.90;99.90;;;;;;5012232;28;20514;-52
2022/11/02 01:43:30;;;;;;;54.03;36.60;;;7.90;99.90;;;;;;5010832;28;21069;-48
2022/11/02 01:46:05;;;;;;;56.67;35.70;;;7.90;99.90;;;;;;5001392;28;20194;-51
2022/11/02 01:48:38;;;;;;;49.73;35.77;;;8.00;99.90;;;;;;5003642;28;20445;-53
2022/11/02 01:51:13;;;;;;;55.33;35.83;;;7.90;99.90;;;;;;5004724;28;20498;-50
2022/11/02 01:53:42;;;;;;;50.70;34.53;;;7.90;99.90;;;;;;5011068;28;20445;-48
2022/11/02 01:56:11;;;;;;;51.80;35.73;;;7.90;99.90;;;;;;5012165;28;20415;-50
2022/11/02 01:58:37;;;;;;;54.87;34.97;;;7.90;99.90;;;;;;5006677;28;20772;-50
2022/11/02 02:01:02;;;;;;;51.07;34.17;;;7.80;99.90;;;;;;4992271;28;20430;-49
2022/11/02 02:03:31;;;;;;;57.40;36.20;;;7.80;99.90;;;;;;5007450;28;20210;-47
2022/11/02 02:06:00;;;;;;;54.27;34.27;;;7.80;99.90;;;;;;5005614;28;20190;-52
2022/11/02 02:08:26;;;;;;;59.97;35.00;;;7.70;99.90;;;;;;5007896;28;20445;-50
2022/11/02 02:10:56;;;;;;;55.20;35.83;;;7.70;99.90;;;;;;4997790;28;21190;-50
2022/11/02 02:13:22;;;;;;;56.23;36.87;;;7.70;99.90;;;;;;5010716;28;20477;-51
2022/11/02 02:16:07;;;;;;;58.57;34.27;;;7.70;99.90;;;;;;5003471;28;21195;-52
2022/11/02 02:18:47;;;;;;;58.33;38.50;;;7.70;99.90;;;;;;5003095;28;20853;-48
2022/11/02 02:21:51;;;;;;;61.03;36.27;;;7.70;99.90;;;;;;4992367;28;20473;-53
2022/11/02 02:24:35;;;;;;;59.83;35.60;;;7.70;99.90;;;;;;4999950;28;20440;-49
2022/11/02 02:27:11;;;;;;;55.23;35.73;;;7.60;99.90;;;;;;5010674;28;20426;-49
2022/11/02 02:29:37;;;;;;;52.37;34.70;;;7.70;99.90;;;;;;5006675;28;20462;-49
2022/11/02 02:32:26;;;;;;;56.83;36.43;;;7.60;99.90;;;;;;5005021;28;20460;-48
2022/11/02 02:35:06;;;;;;;64.60;36.10;;;7.60;99.90;;;;;;5004625;28;20199;-50
2022/11/02 02:37:47;;;;;;;61.60;36.30;;;7.60;99.90;;;;;;4995921;28;20904;-48
2022/11/02 02:40:19;;;;;;;53.87;34.40;;;7.50;99.90;;;;;;5011009;28;20787;-51
2022/11/02 02:43:10;;;;;;;57.13;35.13;;;7.50;99.90;;;;;;5009026;28;20459;-49
2022/11/02 02:45:49;;;;;;;60.00;34.60;;;7.60;99.90;;;;;;5007612;28;20453;-46
2022/11/02 02:48:17;;;;;;;55.47;35.27;;;7.50;99.90;;;;;;5009149;28;20452;-49
2022/11/02 02:51:05;;;;;;;59.63;35.50;;;7.50;99.90;;;;;;5009722;28;20500;-52
2022/11/02 02:53:51;;;;;;;50.07;35.10;;;7.40;99.90;;;;;;5009788;28;20812;-51
2022/11/02 02:56:20;;;;;;;77.03;46.80;;;7.40;99.90;;;;;;5004135;28;20446;-50
2022/11/02 02:59:11;;;;;;;68.37;40.57;;;7.50;99.90;;;;;;5007557;28;20595;-49
2022/11/02 03:01:41;;;;;;;61.97;37.60;;;7.50;99.90;;;;;;5010002;28;20453;-50
2022/11/02 03:04:12;;;;;;;80.43;40.30;;;7.40;99.90;;;;;;5008762;28;20445;-51
2022/11/02 03:06:45;;;;;;;62.83;37.10;;;7.50;99.90;;;;;;5011131;28;20817;-51
2022/11/02 03:09:25;;;;;;;60.10;37.60;;;7.40;99.90;;;;;;5007743;28;20483;-50
2022/11/02 03:12:12;;;;;;;50.20;33.20;;;7.40;99.90;;;;;;5008856;28;20555;-48
2022/11/02 03:14:54;;;;;;;59.77;36.50;;;7.40;99.90;;;;;;5009418;28;20449;-51
2022/11/02 03:17:34;;;;;;;75.70;43.67;;;7.30;99.90;;;;;;4992862;28;20792;-49
2022/11/02 03:20:10;;;;;;;73.03;47.87;;;7.30;99.90;;;;;;5007070;28;20512;-50
2022/11/02 03:23:00;;;;;;;113.27;69.27;;;7.20;99.90;;;;;;5010458;28;20910;-49
2022/11/02 03:25:43;;;;;;;135.40;84.97;;;7.30;99.90;;;;;;5010491;28;20906;-48
2022/11/02 03:28:13;;;;;;;126.67;76.70;;;7.30;99.90;;;;;;5007997;28;20445;-48
2022/11/02 03:30:48;;;;;;;132.57;78.47;;;7.20;99.90;;;;;;5009032;28;20564;-50
2022/11/02 03:33:29;;;;;;;116.33;72.73;;;7.20;99.90;;;;;;5008288;28;21039;-49
2022/11/02 03:36:04;;;;;;;127.47;86.30;;;7.20;99.90;;;;;;5001445;28;20939;-51
2022/11/02 03:38:39;;;;;;;124.83;81.83;;;7.20;99.90;;;;;;4997786;28;20447;-50
2022/11/02 03:41:06;;;;;;;116.53;78.33;;;7.20;99.90;;;;;;5009004;28;20962;-50
2022/11/02 03:43:34;;;;;;;112.17;74.10;;;7.20;99.90;;;;;;5007966;28;20771;-53
2022/11/02 03:46:03;;;;;;;115.07;73.07;;;7.20;99.90;;;;;;4998765;28;20434;-48
2022/11/02 03:48:50;;;;;;;108.60;68.57;;;7.10;99.90;;;;;;5002396;28;20458;-48
2022/11/02 03:51:21;;;;;;;97.77;58.63;;;7.10;99.90;;;;;;4995780;28;20522;-51
2022/11/02 03:54:14;;;;;;;94.70;59.63;;;7.10;99.90;;;;;;5007715;28;20477;-53
2022/11/02 03:56:44;;;;;;;89.60;54.03;;;7.10;99.90;;;;;;5009035;28;20508;-49
2022/11/02 03:59:10;;;;;;;75.77;49.27;;;7.20;99.90;;;;;;5007397;28;20452;-54
2022/11/02 04:01:47;;;;;;;74.63;45.17;;;7.10;99.90;;;;;;5006700;28;20445;-53
2022/11/02 04:04:13;;;;;;;63.57;42.27;;;7.10;99.90;;;;;;4990263;28;20194;-48
2022/11/02 04:06:40;;;;;;;60.80;42.80;;;7.10;99.90;;;;;;5007454;28;20426;-53
2022/11/02 04:09:06;;;;;;;55.00;36.50;;;7.10;99.90;;;;;;4997148;28;20449;-51
2022/11/02 04:19:44;;;;;;;48.90;32.10;;;6.80;99.90;;;;;;4997434;28;20617;-53
2022/11/02 04:25:27;;;;;;;50.73;31.07;;;6.80;99.90;;;;;;4997407;28;20236;-50
2022/11/02 04:27:49;;;;;;;45.13;30.30;;;6.80;99.90;;;;;;4988273;28;20460;-51
2022/11/02 04:30:17;;;;;;;50.77;29.60;;;6.80;99.90;;;;;;5004508;28;20592;-51
2022/11/02 04:35:29;;;;;;;44.20;28.13;;;6.90;99.90;;;;;;5006234;28;20475;-53
2022/11/02 04:40:40;;;;;;;42.00;27.83;;;6.80;99.90;;;;;;5007272;28;20468;-46
2022/11/02 04:43:05;;;;;;;44.50;27.97;;;6.70;99.90;;;;;;5003050;28;20809;-50
2022/11/02 04:45:31;;;;;;;53.03;30.93;;;6.70;99.90;;;;;;5013205;28;20202;-48
2022/11/02 04:48:01;;;;;;;53.37;28.17;;;6.70;99.90;;;;;;5010242;28;20700;-53
2022/11/02 04:50:27;;;;;;;47.27;27.50;;;6.70;99.90;;;;;;5013235;28;20307;-50
2022/11/02 04:53:01;;;;;;;44.93;27.60;;;6.70;99.90;;;;;;5006783;28;20649;-52
2022/11/02 04:55:27;;;;;;;44.33;27.00;;;6.70;99.90;;;;;;4994545;28;20428;-52
2022/11/02 04:57:53;;;;;;;48.80;27.07;;;6.70;99.90;;;;;;4996021;28;20474;-51
2022/11/02 05:00:19;;;;;;;42.37;26.00;;;6.60;99.90;;;;;;5002795;28;20428;-52
2022/11/02 05:02:47;;;;;;;41.47;26.70;;;6.60;99.90;;;;;;5009392;28;20197;-48
2022/11/02 05:05:13;;;;;;;41.10;27.03;;;6.60;99.90;;;;;;5012223;28;20439;-50
2022/11/02 05:07:39;;;;;;;44.07;25.10;;;6.60;99.90;;;;;;5005367;28;20453;-52
2022/11/02 05:10:05;;;;;;;44.20;26.37;;;6.60;99.90;;;;;;5008920;28;20486;-49
2022/11/02 05:12:31;;;;;;;43.07;27.17;;;6.60;99.90;;;;;;4989324;28;20219;-50
2022/11/02 05:14:56;;;;;;;47.13;28.10;;;6.60;99.90;;;;;;4990436;28;20449;-51
2022/11/02 05:17:22;;;;;;;46.00;29.00;;;6.60;99.90;;;;;;4993186;28;20192;-47
2022/11/02 05:19:47;;;;;;;43.20;28.17;;;6.60;99.90;;;;;;4988967;28;20226;-51
2022/11/02 05:22:13;;;;;;;50.13;29.60;;;6.60;99.90;;;;;;4987680;28;20200;-53
2022/11/02 05:24:39;;;;;;;46.30;27.63;;;6.60;99.90;;;;;;4993769;28;20200;-49
2022/11/02 05:27:05;;;;;;;48.00;28.07;;;6.60;99.90;;;;;;5001808;28;20260;-50
2022/11/02 05:29:30;;;;;;;48.20;28.80;;;6.60;99.90;;;;;;5009381;28;20440;-52
2022/11/02 05:31:56;;;;;;;48.77;28.60;;;6.60;99.90;;;;;;5008395;28;20309;-52
2022/11/02 05:34:22;;;;;;;50.27;28.47;;;6.50;99.90;;;;;;5000472;28;20186;-52
2022/11/02 05:36:48;;;;;;;37.50;27.97;;;6.50;99.90;;;;;;5012257;28;20184;-52
2022/11/02 05:39:14;;;;;;;45.60;28.77;;;6.50;99.90;;;;;;5012130;28;20735;-51
2022/11/02 05:41:39;;;;;;;39.30;27.03;;;6.50;99.90;;;;;;5005606;28;20555;-50
2022/11/02 05:44:05;;;;;;;42.90;28.10;;;6.50;99.90;;;;;;5004049;28;20209;-52
2022/11/02 05:46:30;;;;;;;45.27;29.20;;;6.50;99.90;;;;;;4993410;28;20994;-50
2022/11/02 05:48:56;;;;;;;41.13;26.63;;;6.40;99.90;;;;;;5012001;28;20189;-53
2022/11/02 05:51:21;;;;;;;55.13;30.97;;;6.40;99.90;;;;;;5006991;28;20212;-50
2022/11/02 05:53:47;;;;;;;42.40;28.87;;;6.40;99.90;;;;;;5011129;28;20194;-52
2022/11/02 05:56:13;;;;;;;47.47;29.33;;;6.40;99.90;;;;;;5011880;28;20252;-50
2022/11/02 05:58:39;;;;;;;47.90;28.87;;;6.50;99.90;;;;;;5011902;28;20193;-49
2022/11/02 06:01:07;;;;;;;48.80;28.07;;;6.40;99.90;;;;;;5010722;28;20450;-52
2022/11/02 06:03:33;;;;;;;47.87;28.37;;;6.50;99.90;;;;;;4995443;28;20444;-53
2022/11/02 06:06:06;;;;;;;57.17;30.10;;;6.50;99.90;;;;;;4990968;28;20468;-53
2022/11/02 06:08:33;;;;;;;43.07;26.30;;;6.50;99.90;;;;;;4991894;28;20457;-50
2022/11/02 06:11:07;;;;;;;44.40;27.53;;;6.50;99.90;;;;;;4991609;28;20488;-51
2022/11/02 06:13:33;;;;;;;48.20;30.00;;;6.40;99.90;;;;;;4993920;28;20441;-52
2022/11/02 06:16:00;;;;;;;41.87;28.77;;;6.40;99.90;;;;;;4995457;28;20539;-48
2022/11/02 06:18:26;;;;;;;46.17;28.00;;;6.40;99.90;;;;;;5012478;28;20455;-47
2022/11/02 06:20:51;;;;;;;42.60;27.07;;;6.40;99.90;;;;;;5011423;28;20478;-48
2022/11/02 06:23:17;;;;;;;53.37;27.80;;;6.40;99.90;;;;;;5011297;28;20252;-51
2022/11/02 06:25:49;;;;;;;44.63;26.83;;;6.50;99.90;;;;;;5010473;28;20199;-49
2022/11/02 06:28:15;;;;;;;44.20;28.30;;;6.40;99.90;;;;;;4994541;28;20534;-55
2022/11/02 06:30:42;;;;;;;45.73;28.30;;;6.50;99.90;;;;;;4991738;28;20471;-51
2022/11/02 06:33:07;;;;;;;44.77;27.87;;;6.50;99.90;;;;;;4991538;28;20187;-52
2022/11/02 06:35:33;;;;;;;46.20;27.30;;;6.60;99.90;;;;;;5007288;28;20750;-51
2022/11/02 06:37:59;;;;;;;41.47;28.40;;;6.70;99.90;;;;;;4999719;28;20274;-53
2022/11/02 06:40:27;;;;;;;48.20;26.50;;;6.70;99.90;;;;;;5001045;28;20196;-51
2022/11/02 06:42:56;;;;;;;43.80;28.37;;;6.90;99.90;;;;;;5005490;28;20249;-48
2022/11/02 06:45:23;;;;;;;43.87;26.10;;;7.00;99.90;;;;;;4991464;28;20422;-49
2022/11/02 06:47:48;;;;;;;43.73;26.10;;;7.10;99.90;;;;;;5003308;28;20458;-50
2022/11/02 06:50:14;;;;;;;40.40;26.57;;;7.20;99.90;;;;;;5008270;28;20472;-53
2022/11/02 06:52:44;;;;;;;40.37;25.83;;;7.30;99.90;;;;;;5011063;28;20190;-50
2022/11/02 06:55:11;;;;;;;39.60;25.00;;;7.40;99.90;;;;;;5010369;28;20456;-51
2022/11/02 06:57:37;;;;;;;34.10;24.07;;;7.60;99.90;;;;;;5000566;28;20861;-44
2022/11/02 07:00:05;;;;;;;40.97;23.30;;;7.70;99.90;;;;;;5006579;28;20516;-50
2022/11/02 07:02:31;;;;;;;32.67;22.67;;;7.80;99.90;;;;;;5010983;28;20467;-49
2022/11/02 07:04:57;;;;;;;30.70;21.47;;;8.00;99.90;;;;;;4995142;28;20461;-52
2022/11/02 07:07:22;;;;;;;28.23;20.83;;;8.00;99.90;;;;;;4994332;28;20203;-52
2022/11/02 07:09:48;;;;;;;30.47;21.80;;;8.20;99.90;;;;;;4990669;28;20199;-50
2022/11/02 07:12:14;;;;;;;28.17;19.57;;;8.30;99.90;;;;;;5010294;28;20195;-52
2022/11/02 07:14:39;;;;;;;26.23;19.10;;;8.40;99.90;;;;;;5005053;28;20195;-54
2022/11/02 07:17:05;;;;;;;29.50;20.10;;;8.40;99.90;;;;;;4993554;28;20493;-48
2022/11/02 07:19:30;;;;;;;28.77;18.70;;;8.50;99.90;;;;;;5006415;28;20235;-48
2022/11/02 07:21:56;;;;;;;22.80;17.53;;;8.60;99.90;;;;;;4994474;28;20199;-49
2022/11/02 07:24:21;;;;;;;24.47;16.60;;;8.60;99.90;;;;;;4996907;28;20273;-48
2022/11/02 07:26:50;;;;;;;23.13;16.43;;;8.60;99.90;;;;;;5005963;28;20198;-48
2022/11/02 07:29:18;;;;;;;23.80;17.63;;;8.70;99.90;;;;;;5003380;28;20203;-48
2022/11/02 07:31:44;;;;;;;24.00;16.83;;;8.70;99.90;;;;;;4991523;28;20988;-48
2022/11/02 07:34:11;;;;;;;27.00;18.33;;;8.80;99.90;;;;;;4996332;28;20430;-50
2022/11/02 07:36:37;;;;;;;23.03;17.63;;;9.00;99.90;;;;;;5002656;28;20202;-48
2022/11/02 07:39:03;;;;;;;24.40;19.50;;;9.20;99.90;;;;;;4998692;28;20430;-49
2022/11/02 07:41:30;;;;;;;27.07;18.40;;;9.50;99.90;;;;;;5009965;28;20423;-48
2022/11/02 07:43:55;;;;;;;23.33;16.97;;;9.90;99.90;;;;;;5009512;28;20492;-49
2022/11/02 07:46:21;;;;;;;19.13;15.73;;;10.20;99.90;;;;;;5001036;28;20447;-52
2022/11/02 07:48:47;;;;;;;20.67;14.60;;;10.60;99.90;;;;;;4990348;28;20282;-49
2022/11/02 07:51:12;;;;;;;17.53;13.60;;;11.10;99.90;;;;;;4990635;28;20677;-52
2022/11/02 07:53:38;;;;;;;16.00;12.83;;;11.60;99.90;;;;;;4990403;28;20602;-49
2022/11/02 07:56:05;;;;;;;13.60;12.03;;;12.00;99.90;;;;;;4994437;28;20222;-51
2022/11/02 07:58:31;;;;;;;14.20;12.03;;;12.40;99.90;;;;;;4990106;28;20424;-52
2022/11/02 08:00:58;;;;;;;15.77;12.80;;;13.00;99.90;;;;;;4990287;28;20429;-51
2022/11/02 08:03:24;;;;;;;13.10;11.80;;;13.50;99.90;;;;;;4988905;28;20925;-49
2022/11/02 08:05:50;;;;;;;16.30;12.23;;;14.20;99.90;;;;;;4993372;28;20451;-50
2022/11/02 08:08:17;;;;;;;13.20;12.00;;;14.60;99.90;;;;;;4990462;28;20420;-43
2022/11/02 08:10:45;;;;;;;13.40;12.00;;;15.10;99.90;;;;;;5007506;28;20210;-51
2022/11/02 08:13:14;;;;;;;13.30;12.00;;;15.40;99.90;;;;;;5009533;28;20457;-50
2022/11/02 08:15:40;;;;;;;13.93;12.53;;;15.90;99.90;;;;;;5001363;28;20450;-51
2022/11/02 08:18:14;;;;;;;13.97;12.57;;;16.40;99.90;;;;;;4993821;28;20905;-52
2022/11/02 08:20:40;;;;;;;12.03;10.93;;;16.80;99.90;;;;;;4990623;28;20485;-50
2022/11/02 08:23:07;;;;;;;13.00;11.70;;;17.20;99.90;;;;;;4990072;28;20423;-51
2022/11/02 08:25:34;;;;;;;13.93;12.73;;;17.60;99.90;;;;;;4991422;28;20457;-53
2022/11/02 08:28:00;;;;;;;14.07;12.77;;;18.00;99.90;;;;;;5000597;28;20425;-51
2022/11/02 08:30:27;;;;;;;13.20;12.10;;;18.40;99.80;;;;;;5009224;28;20461;-53
2022/11/02 08:32:53;;;;;;;14.37;13.17;;;18.90;98.70;;;;;;5009736;28;20422;-49
2022/11/02 08:35:18;;;;;;;13.23;12.03;;;19.30;96.50;;;;;;5003512;28;20956;-49
2022/11/02 08:37:44;;;;;;;13.60;12.40;;;19.80;93.60;;;;;;4999741;28;20198;-48
2022/11/02 08:40:10;;;;;;;12.80;11.80;;;20.10;92.20;;;;;;5006413;28;20901;-48
2022/11/02 08:42:37;;;;;;;14.27;13.00;;;20.60;88.40;;;;;;4994581;28;20637;-50
2022/11/02 08:45:05;;;;;;;11.83;10.97;;;20.50;88.00;;;;;;5006619;28;20573;-52
2022/11/02 08:47:30;;;;;;;11.10;10.03;;;20.60;83.50;;;;;;4990871;28;20423;-48
2022/11/02 08:49:56;;;;;;;9.23;8.30;;;19.90;80.40;;;;;;4989724;28;20430;-51
2022/11/02 08:52:22;;;;;;;10.73;9.70;;;19.70;79.50;;;;;;4989939;28;20184;-50
2022/11/02 08:54:47;;;;;;;9.73;9.00;;;19.40;80.60;;;;;;4997029;28;20244;-51
2022/11/02 08:57:13;;;;;;;8.80;8.10;;;19.20;82.80;;;;;;4988774;28;20254;-53
2022/11/02 08:59:38;;;;;;;10.13;9.30;;;19.30;81.10;;;;;;5000635;28;20202;-49
2022/11/02 09:02:04;;;;;;;8.87;7.37;;;19.20;82.70;;;;;;5009301;28;20183;-52
2022/11/02 09:04:29;;;;;;;8.43;7.63;;;19.60;83.40;;;;;;5007579;28;20206;-49
2022/11/02 09:06:55;;;;;;;9.50;8.60;;;20.30;78.40;;;;;;5009276;28;20618;-47
2022/11/02 09:09:20;;;;;;;8.70;7.97;;;21.10;77.80;;;;;;5002858;28;20199;-51
2022/11/02 09:11:49;;;;;;;8.73;8.13;;;20.80;72.70;;;;;;4989683;28;20214;-47
2022/11/02 09:14:14;;;;;;;10.37;8.30;;;21.30;69.50;;;;;;4989836;28;20528;-48
2022/11/02 09:16:40;;;;;;;8.53;7.83;;;21.60;67.20;;;;;;5008960;28;20556;-46
2022/11/02 09:19:06;;;;;;;7.90;6.60;;;21.50;67.50;;;;;;5018727;28;20171;-48
2022/11/02 09:21:31;;;;;;;8.63;7.20;;;21.20;65.90;;;;;;5028649;28;20245;-47
2022/11/02 09:23:57;;;;;;;7.67;6.97;;;20.50;66.60;;;;;;5026654;28;20535;-47
2022/11/02 09:26:22;;;;;;;8.37;7.03;;;20.20;68.00;;;;;;5006021;28;20194;-50
2022/11/02 09:28:48;;;;;;;7.53;6.30;;;19.80;71.20;;;;;;5011386;28;20211;-48
2022/11/02 09:31:13;;;;;;;6.67;6.27;;;20.00;70.20;;;;;;5012669;28;20211;-52
2022/11/02 09:33:39;;;;;;;8.07;7.33;;;19.80;71.30;;;;;;5011304;28;20201;-51
2022/11/02 09:36:05;;;;;;;8.03;7.43;;;19.30;75.40;;;;;;5011438;28;20214;-49
2022/11/02 09:38:31;;;;;;;6.80;6.37;;;19.20;76.70;;;;;;5012854;28;20178;-48
2022/11/02 09:41:35;;;;;;;6.93;6.43;;;19.90;74.50;;;;;;5012496;28;20527;-49
2022/11/02 09:44:11;;;;;;;8.30;7.50;;;20.50;70.70;;;;;;5008320;28;20943;-49
2022/11/02 09:46:40;;;;;;;7.57;6.70;;;20.40;68.90;;;;;;5021664;28;21315;-51
2022/11/02 09:49:17;;;;;;;7.07;6.57;;;20.20;69.40;;;;;;5012078;28;20429;-49
2022/11/02 09:51:54;;;;;;;7.27;6.70;;;20.50;69.10;;;;;;5010582;28;20838;-49
2022/11/02 09:54:44;;;;;;;8.80;7.37;;;20.40;71.20;;;;;;5012175;28;20540;-52
2022/11/02 09:57:15;;;;;;;7.43;6.40;;;20.50;68.80;;;;;;4999741;28;20513;-53
2022/11/02 09:59:41;;;;;;;7.00;6.60;;;20.20;68.90;;;;;;5008165;28;20496;-51
2022/11/02 10:02:12;;;;;;;7.63;7.03;;;19.90;69.80;;;;;;4992323;28;20438;-52
2022/11/02 10:05:08;;;;;;;6.87;6.23;;;19.40;72.60;;;;;;4992337;28;20188;-50
2022/11/02 10:08:04;;;;;;;7.53;7.00;;;18.80;74.90;;;;;;4993281;28;20442;-48
2022/11/02 10:11:05;;;;;;;8.27;7.53;;;17.80;79.70;;;;;;4996943;28;20494;-50
2022/11/02 10:13:48;;;;;;;7.70;6.93;;;17.40;83.30;;;;;;5001141;28;20436;-50
2022/11/02 10:16:24;;;;;;;8.03;7.53;;;17.20;88.10;;;;;;5005658;28;20447;-51
2022/11/02 10:18:52;;;;;;;7.73;7.23;;;16.70;90.40;;;;;;5007047;28;20514;-50
2022/11/02 10:21:22;;;;;;;7.70;7.00;;;16.60;91.30;;;;;;5005862;28;20493;-55
2022/11/02 10:23:53;;;;;;;8.07;7.00;;;16.40;92.50;;;;;;4991835;28;20496;-48
2022/11/02 10:26:26;;;;;;;8.17;7.60;;;16.40;93.30;;;;;;4995475;28;20446;-48
2022/11/02 10:28:58;;;;;;;7.43;7.00;;;16.30;94.50;;;;;;4991978;28;20456;-54
2022/11/02 10:31:33;;;;;;;7.87;7.27;;;16.10;93.90;;;;;;5001803;28;20473;-49
2022/11/02 10:34:31;;;;;;;8.10;7.50;;;16.20;94.20;;;;;;4997859;28;20854;-45
2022/11/02 10:37:23;;;;;;;8.30;7.77;;;16.20;93.80;;;;;;4995330;28;21250;-46
2022/11/02 10:40:16;;;;;;;8.27;7.63;;;16.20;93.60;;;;;;4984278;28;20457;-48
2022/11/02 10:42:55;;;;;;;7.93;7.40;;;16.20;94.00;;;;;;5001304;28;20436;-50
2022/11/02 10:45:39;;;;;;;8.03;7.37;;;16.30;94.50;;;;;;5008306;28;20429;-50
2022/11/02 10:48:22;;;;;;;7.70;7.07;;;16.80;95.00;;;;;;5001398;28;20476;-52
2022/11/02 10:51:04;;;;;;;7.93;6.80;;;17.90;90.70;;;;;;5010698;28;20556;-49
2022/11/02 10:53:35;;;;;;;7.27;6.73;;;19.10;82.20;;;;;;5011088;28;20926;-52
2022/11/02 10:56:13;;;;;;;6.73;6.33;;;19.40;77.60;;;;;;5007289;28;20948;-50
2022/11/02 10:58:59;;;;;;;7.27;6.50;;;19.40;77.00;;;;;;5001514;28;20449;-51
2022/11/02 11:01:26;;;;;;;6.83;6.33;;;19.60;72.90;;;;;;5000173;28;20429;-48
2022/11/02 11:03:59;;;;;;;10.20;6.50;;;19.70;71.90;;;;;;5008959;28;20505;-52
2022/11/02 11:06:35;;;;;;;7.17;6.47;;;19.60;70.50;;;;;;5000121;28;20461;-50
2022/11/02 11:09:06;;;;;;;6.63;6.00;;;19.80;70.20;;;;;;4996961;28;20454;-47
2022/11/02 11:11:38;;;;;;;7.23;6.63;;;19.50;68.10;;;;;;4999207;28;20832;-49
2022/11/02 11:14:05;;;;;;;7.33;6.83;;;19.30;70.40;;;;;;4991015;28;20434;-50
2022/11/02 11:16:39;;;;;;;7.77;6.80;;;19.40;68.20;;;;;;5002010;28;20476;-49
2022/11/02 11:19:16;;;;;;;7.33;6.90;;;19.50;68.50;;;;;;5014959;28;20422;-49
2022/11/02 11:21:42;;;;;;;8.33;7.00;;;19.10;69.30;;;;;;4997133;28;20459;-52
2022/11/02 11:24:19;;;;;;;7.80;7.10;;;19.50;70.80;;;;;;4992276;28;20435;-44
2022/11/02 11:26:44;;;;;;;8.30;7.60;;;19.90;69.90;;;;;;5001396;28;20191;-50
2022/11/02 11:29:21;;;;;;;7.53;6.97;;;20.50;64.60;;;;;;4997336;28;20434;-49
2022/11/02 11:31:48;;;;;;;7.27;6.67;;;21.40;62.70;;;;;;5009841;28;20305;-48
2022/11/02 11:34:44;;;;;;;6.70;6.30;;;22.00;58.30;;;;;;4997074;28;20946;-49
2022/11/02 11:37:13;;;;;;;7.60;7.10;;;22.20;56.30;;;;;;4994568;28;20446;-50
2022/11/02 11:39:41;;;;;;;7.40;6.90;;;21.90;56.30;;;;;;4992662;28;20526;-50
2022/11/02 11:42:23;;;;;;;7.63;7.10;;;22.20;54.10;;;;;;4991715;28;20427;-52
2022/11/02 11:45:17;;;;;;;8.07;7.30;;;21.20;52.90;;;;;;5008901;28;20429;-50
2022/11/02 11:47:43;;;;;;;8.50;7.80;;;19.10;57.70;;;;;;5001379;28;20450;-52
2022/11/02 11:50:15;;;;;;;6.77;6.30;;;18.90;63.00;;;;;;4991323;28;20518;-48
2022/11/02 11:52:41;;;;;;;7.67;7.07;;;18.50;63.60;;;;;;4990174;28;20419;-49
2022/11/02 11:55:20;;;;;;;7.60;7.00;;;18.20;65.50;;;;;;4990385;28;20498;-51
2022/11/02 11:57:46;;;;;;;8.43;7.63;;;17.80;68.10;;;;;;5000130;28;20426;-47
2022/11/02 12:00:29;;;;;;;8.20;7.40;;;17.50;70.00;;;;;;4992136;28;20441;-52
2022/11/02 12:03:10;;;;;;;7.73;7.20;;;17.40;72.70;;;;;;5009752;28;20226;-49
2022/11/02 12:05:57;;;;;;;8.20;7.40;;;17.10;75.40;;;;;;5008502;28;20402;-53
2022/11/02 12:08:34;;;;;;;8.23;7.50;;;17.40;75.80;;;;;;5010346;28;20403;-51
2022/11/02 12:11:54;;;;;;;7.47;6.87;;;18.10;72.60;;;;;;4990297;28;20554;-50
2022/11/02 12:14:58;;;;;;;8.13;7.30;;;19.10;68.20;;;;;;4973766;28;20972;-50
2022/11/02 12:17:40;;;;;;;7.57;6.87;;;19.50;63.00;;;;;;5004045;28;20876;-52
2022/11/02 12:20:30;;;;;;;7.23;6.83;;;20.00;60.40;;;;;;5027373;28;20488;-52
2022/11/02 12:23:22;;;;;;;7.23;6.80;;;20.60;56.00;;;;;;5029572;28;20405;-49
2022/11/02 12:26:05;;;;;;;8.33;7.80;;;20.60;55.50;;;;;;5025893;28;20429;-50
2022/11/02 12:29:02;;;;;;;8.40;7.53;;;20.60;55.10;;;;;;5009770;28;20930;-49
2022/11/02 12:32:22;;;;;;;8.27;6.83;;;20.50;54.90;;;;;;5008570;28;20481;-49
2022/11/02 12:35:04;;;;;;;7.93;7.33;;;19.90;56.20;;;;;;4987497;28;20403;-45
2022/11/02 12:37:59;;;;;;;8.17;7.60;;;19.00;58.50;;;;;;5004637;28;20767;-51
2022/11/02 12:40:34;;;;;;;9.60;8.70;;;18.70;60.40;;;;;;5007427;28;20430;-50
2022/11/02 12:43:20;;;;;;;8.37;7.67;;;18.10;63.20;;;;;;5006310;28;20440;-47
2022/11/02 12:46:12;;;;;;;8.33;7.73;;;17.90;66.50;;;;;;5005632;28;20421;-49
2022/11/02 12:48:58;;;;;;;8.30;7.60;;;17.80;67.80;;;;;;4995033;28;20552;-53
2022/11/02 12:51:31;;;;;;;8.00;7.40;;;18.00;68.90;;;;;;5000029;28;20507;-47
2022/11/02 12:54:10;;;;;;;7.93;7.30;;;18.80;66.90;;;;;;5009280;28;20450;-49
2022/11/02 12:56:47;;;;;;;7.97;7.37;;;19.80;60.40;;;;;;5008254;28;20932;-51
2022/11/02 12:59:27;;;;;;;7.90;7.10;;;20.50;58.90;;;;;;4990413;28;20493;-51
2022/11/02 13:02:28;;;;;;;7.93;7.40;;;21.10;57.10;;;;;;5004145;28;20418;-52
2022/11/02 13:05:04;;;;;;;8.10;7.60;;;22.10;53.90;;;;;;5004850;28;20417;-49
2022/11/02 13:07:54;;;;;;;8.00;7.47;;;22.30;50.90;;;;;;5008398;28;20810;-52
2022/11/02 13:10:29;;;;;;;7.90;7.40;;;22.00;51.40;;;;;;5007846;28;20461;-52
2022/11/02 13:12:58;;;;;;;8.07;7.37;;;21.10;52.20;;;;;;5012738;28;20414;-47
2022/11/02 13:15:26;;;;;;;7.70;7.30;;;20.00;54.10;;;;;;5011823;28;20525;-49
2022/11/02 13:17:53;;;;;;;8.20;7.60;;;19.40;56.10;;;;;;4999534;28;20471;-53